Data for 04/16/2008

Time Sea-Level Adjusted Pressure Absolute Pressure Temperature Relative Humidity Dew Point   
(mb) (inHg) (mb) (inHg) (C) (F) (%) (C) (F)
00:05 1014 29.94 843 24.89 -2.5 27.4 62 -8.9 16
00:10 1014 29.94 843 24.89 -2.9 26.9 62 -9.1 15.6
00:15 1014 29.94 843 24.89 -2.8 27 61 -9.4 15.1
00:20 1014 29.94 843 24.89 -2.7 27.1 61 -9.2 15.4
00:25 1014 29.94 843 24.89 -2.8 26.9 62 -9.1 15.6
00:30 1014 29.94 843 24.89 -2.7 27.1 61 -9.2 15.4
00:35 1014 29.94 844 24.92 -2.7 27.2 61 -9.3 15.3
00:40 1014 29.94 844 24.92 -2.7 27.2 60 -9.5 14.9
00:45 1015 29.97 844 24.92 -2.5 27.5 58 -9.7 14.5
00:50 1015 29.97 844 24.92 -2.5 27.5 58 -9.7 14.6
00:55 1015 29.97 844 24.92 -2.4 27.7 58 -9.6 14.8
01:00 1015 29.97 844 24.92 -2.4 27.7 59 -9.4 15.1
01:05 1015 29.97 844 24.92 -2.3 27.9 59 -9.2 15.4
01:10 1015 29.97 844 24.92 -1.9 28.6 57 -9.2 15.4
01:15 1015 29.97 844 24.92 -1.7 29 57 -9.1 15.7
01:20 1015 29.97 844 24.92 -1.5 29.3 58 -8.8 16.2
01:25 1015 29.97 844 24.92 -1.4 29.5 58 -8.5 16.6
01:30 1015 29.97 844 24.92 -1.3 29.7 59 -8.4 16.9
01:35 1015 29.97 844 24.92 -1.3 29.6 61 -8 17.6
01:40 1015 29.97 844 24.92 -1.8 28.8 62 -8.1 17.4
01:45 1015 29.97 844 24.92 -2.2 28.1 63 -8.3 17
01:50 1015 29.97 845 24.95 -2 28.3 63 -8.3 17.1
01:55 1015 29.97 845 24.95 -2 28.4 62 -8.4 16.9
02:00 1015 29.97 845 24.95 -1.9 28.7 61 -8.3 17
02:05 1015 29.97 845 24.95 -1.9 28.6 62 -8.1 17.4
02:10 1015 29.97 845 24.95 -1.8 28.8 63 -7.9 17.8
02:15 1015 29.97 845 24.95 -1.6 29.1 63 -7.7 18.1
02:20 1015 29.97 845 24.95 -1.5 29.3 64 -7.5 18.4
02:25 1016 30 845 24.95 -1.6 29 66 -7.1 19.2
02:30 1016 30 845 24.95 -2.2 28.1 70 -7 19.4
02:35 1016 30 845 24.95 -2.4 27.7 71 -7 19.4
02:40 1016 30 845 24.95 -2.4 27.7 71 -6.9 19.6
02:45 1016 30 845 24.95 -2.4 27.7 72 -6.7 19.9
02:50 1016 30 845 24.95 -2.3 27.8 72 -6.6 20
02:55 1016 30 845 24.95 -2.3 27.9 73 -6.6 20.2
03:00 1016 30 845 24.95 -2.2 28 71 -6.7 20
03:05 1016 30 845 24.95 -2.2 28.1 70 -6.9 19.7
03:10 1016 30 845 24.95 -2.1 28.2 70 -6.8 19.7
03:15 1016 30 845 24.95 -2.2 28.1 71 -6.7 19.9
03:20 1016 30 845 24.95 -2.3 27.9 72 -6.7 19.9
03:25 1016 30 845 24.95 -2.6 27.3 74 -6.7 20
03:30 1016 30 845 24.95 -2.7 27.1 75 -6.6 20.2
03:35 1016 30 845 24.95 -2.8 26.9 75 -6.6 20.1
03:40 1016 30 845 24.95 -2.9 26.8 76 -6.6 20.2
03:45 1016 30 845 24.95 -2.9 26.8 75 -6.6 20.1
03:50 1016 30 845 24.95 -2.8 26.9 77 -6.4 20.5
03:55 1016 30 845 24.95 -2.7 27.1 76 -6.3 20.6
04:00 1016 30 845 24.95 -2.7 27.1 76 -6.3 20.6
04:05 1016 30 845 24.95 -2.7 27.1 77 -6.2 20.8
04:10 1016 30 845 24.95 -2.9 26.8 78 -6.2 20.9
04:15 1016 30 845 24.95 -2.9 26.7 79 -6.1 21.1
04:20 1016 30 845 24.95 -3 26.6 80 -6 21.2
04:25 1016 30 846 24.98 -3 26.6 79 -6.2 20.8
04:30 1016 30 845 24.95 -2.9 26.8 79 -6 21.2
04:35 1016 30 846 24.98 -3 26.7 79 -6 21.1
04:40 1016 30 846 24.98 -3 26.6 77 -6.5 20.4
04:45 1016 30 846 24.98 -2.9 26.8 77 -6.4 20.5
04:50 1016 30 846 24.98 -2.8 26.9 75 -6.7 19.9
04:55 1016 30 846 24.98 -3 26.6 74 -6.9 19.6
05:00 1016 30 846 24.98 -3.1 26.5 75 -6.9 19.7
05:05 1016 30 846 24.98 -3.1 26.5 76 -6.7 19.9
05:10 1016 30 846 24.98 -2.9 26.7 77 -6.5 20.3
05:15 1016 30 846 24.98 -2.9 26.8 76 -6.5 20.4
05:20 1016 30 846 24.98 -2.8 26.9 76 -6.5 20.3
05:25 1016 30 846 24.98 -2.8 27 76 -6.5 20.4
05:30 1016 30 846 24.98 -2.7 27.1 75 -6.6 20.2
05:35 1016 30 846 24.98 -2.8 27 75 -6.6 20.2
05:40 1017 30.03 846 24.98 -2.8 27 75 -6.6 20
05:45 1017 30.03 846 24.98 -2.8 26.9 75 -6.7 19.9
05:50 1017 30.03 846 24.98 -2.8 27 75 -6.7 20
05:55 1017 30.03 846 24.98 -2.7 27.1 75 -6.7 20
06:00 1017 30.03 846 24.98 -2.8 27 75 -6.7 19.9
06:05 1017 30.03 846 24.98 -2.8 27 74 -6.8 19.8
06:10 1017 30.03 846 24.98 -2.7 27.1 74 -6.8 19.8
06:15 1017 30.03 846 24.98 -2.7 27.2 73 -6.8 19.8
06:20 1017 30.03 846 24.98 -2.7 27.2 72 -7 19.5
06:25 1017 30.03 846 24.98 -2.6 27.3 73 -6.9 19.6
06:30 1017 30.03 846 24.98 -2.6 27.2 72 -7 19.4
06:35 1017 30.03 846 24.98 -2.6 27.2 73 -6.8 19.7
06:40 1017 30.03 846 24.98 -2.7 27.2 73 -6.8 19.7
06:45 1017 30.03 846 24.98 -2.7 27.2 73 -6.9 19.5
06:50 1017 30.03 846 24.98 -2.6 27.3 72 -7 19.4
06:55 1017 30.03 846 24.98 -2.6 27.3 72 -7 19.4
07:00 1017 30.03 846 24.98 -2.7 27.2 73 -6.9 19.5
07:05 1017 30.03 846 24.98 -2.7 27.2 73 -6.9 19.6
07:10 1017 30.03 846 24.98 -2.6 27.4 72 -6.9 19.6
07:15 1017 30.03 846 24.98 -2.5 27.6 72 -6.8 19.7
07:20 1017 30.03 846 24.98 -2.4 27.7 72 -6.9 19.7
07:25 1017 30.03 846 24.98 -2.4 27.8 71 -6.8 19.7
07:30 1017 30.03 847 25.01 -2.3 27.9 71 -6.8 19.7
07:35 1017 30.03 847 25.01 -2.1 28.2 70 -6.9 19.6
07:40 1018 30.06 847 25.01 -2.2 28.1 70 -6.9 19.5
07:45 1018 30.06 847 25.01 -2.1 28.1 70 -6.9 19.5
07:50 1018 30.06 847 25.01 -2.2 28.1 70 -6.9 19.5
07:55 1018 30.06 847 25.01 -2.2 28.1 70 -7 19.4
08:00 1018 30.06 847 25.01 -2 28.3 69 -7 19.4
08:05 1018 30.06 847 25.01 -2 28.4 70 -6.8 19.7
08:10 1018 30.06 847 25.01 -1.9 28.6 69 -6.8 19.7
08:15 1018 30.06 847 25.01 -1.9 28.7 69 -6.8 19.8
08:20 1018 30.06 847 25.01 -1.6 29 68 -6.8 19.8
08:25 1018 30.06 847 25.01 -1.4 29.5 67 -6.6 20.1
08:30 1018 30.06 847 25.01 -0.9 30.3 66 -6.6 20.1
08:35 1018 30.06 847 25.01 -0.9 30.3 65 -6.7 19.9
08:40 1018 30.06 847 25.01 -0.9 30.3 66 -6.6 20.2
08:45 1018 30.06 847 25.01 -0.6 30.9 64 -6.6 20.2
08:50 1018 30.06 847 25.01 -0.8 30.6 64 -6.8 19.8
08:55 1018 30.06 847 25.01 -1 30.3 63 -7 19.3
09:00 1018 30.06 847 25.01 -1.2 29.8 66 -6.7 19.9
09:05 1018 30.06 847 25.01 -1.3 29.7 68 -6.4 20.5
09:10 1018 30.06 847 25.01 -1.5 29.3 70 -6.2 20.8
09:15 1018 30.06 847 25.01 -1.7 28.9 72 -6.1 21
09:20 1018 30.06 847 25.01 -1.9 28.6 73 -6.1 21
09:25 1018 30.06 847 25.01 -1.9 28.7 74 -5.9 21.3
09:30 1018 30.06 847 25.01 -1.7 28.9 73 -6 21.2
09:35 1018 30.06 847 25.01 -1.7 29 73 -5.9 21.4
09:40 1018 30.06 847 25.01 -1.5 29.3 71 -6.1 21
09:45 1018 30.06 847 25.01 -1.5 29.2 71 -6.2 20.8
09:50 1018 30.06 847 25.01 -1.3 29.7 69 -6.2 20.8
09:55 1018 30.06 848 25.04 -1.1 30.1 68 -6.3 20.7
10:00 1018 30.06 848 25.04 -1.1 30.1 68 -6.3 20.6
10:05 1018 30.06 848 25.04 -1 30.2 66 -6.6 20.2
10:10 1018 30.06 848 25.04 -1 30.3 65 -6.6 20.1
10:15 1018 30.06 848 25.04 -0.6 30.9 63 -6.7 19.9
10:20 1018 30.06 848 25.04 -0.6 30.9 63 -6.9 19.7
10:25 1019 30.09 848 25.04 -0.5 31.1 61 -7.1 19.2
10:30 1019 30.09 848 25.04 -0.4 31.2 61 -7 19.5
10:35 1019 30.09 848 25.04 -0.2 31.7 60 -7.1 19.3
10:40 1019 30.09 848 25.04 -0.3 31.5 60 -7 19.3
10:45 1019 30.09 848 25.04 -0.5 31.1 62 -6.9 19.5
10:50 1019 30.09 848 25.04 0 32 59 -7.1 19.3
10:55 1019 30.09 848 25.04 0.4 32.7 58 -6.9 19.5
11:00 1019 30.09 848 25.04 0.5 32.9 57 -7.1 19.1
11:05 1019 30.09 848 25.04 0.9 33.6 53 -7.5 18.5
11:10 1019 30.09 848 25.04 1 33.8 51 -7.9 17.8
11:15 1019 30.09 848 25.04 0.8 33.4 53 -7.7 18.1
11:20 1019 30.09 848 25.04 0.6 33.2 53 -7.8 17.9
11:25 1019 30.09 848 25.04 0.7 33.2 56 -7.2 19
11:30 1019 30.09 848 25.04 0.7 33.2 54 -7.6 18.3
11:35 1019 30.09 848 25.04 1.1 34 53 -7.3 18.8
11:40 1019 30.09 848 25.04 2.4 36.3 50 -7.1 19.2
11:45 1019 30.09 848 25.04 2.3 36.2 51 -6.7 19.9
11:50 1019 30.09 848 25.04 2.4 36.4 50 -6.9 19.6
11:55 1019 30.09 848 25.04 3 37.4 47 -7.3 18.9
12:00 1019 30.09 848 25.04 2.3 36.2 50 -7.1 19.3
12:05 1019 30.09 848 25.04 2.9 37.2 48 -7.1 19.3
12:10 1019 30.09 848 25.04 3.8 38.8 46 -6.7 20
12:15 1019 30.09 848 25.04 3.9 39.1 46 -6.6 20.1
12:20 1019 30.09 848 25.04 4.9 40.8 42 -7.1 19.2
12:25 1019 30.09 848 25.04 4.7 40.4 42 -7.3 18.9
12:30 1019 30.09 848 25.04 4.2 39.6 43 -7.2 19
12:35 1019 30.09 848 25.04 3.3 37.9 50 -6.1 21
12:40 1019 30.09 848 25.04 3.2 37.8 51 -6 21.3
12:45 1019 30.09 848 25.04 3.4 38.1 55 -4.9 23.2
12:50 1019 30.09 848 25.04 2.6 36.7 60 -4.3 24.2
12:55 1019 30.09 848 25.04 2.2 36 58 -5.1 22.8
13:00 1019 30.09 848 25.04 2.5 36.5 55 -5.6 21.9
13:05 1019 30.09 848 25.04 3.1 37.5 54 -5.4 22.4
13:10 1019 30.09 848 25.04 3.9 39.1 48 -6.2 20.8
13:15 1019 30.09 848 25.04 3.9 39.1 49 -5.9 21.3
13:20 1019 30.09 848 25.04 4.6 40.2 45 -6.5 20.3
13:25 1019 30.09 848 25.04 5.2 41.4 40 -7.4 18.7
13:30 1019 30.09 848 25.04 4.6 40.4 40 -8 17.6
13:35 1019 30.09 848 25.04 3.9 39 41 -8.1 17.5
13:40 1019 30.09 848 25.04 4.2 39.6 43 -7.3 18.9
13:45 1019 30.09 848 25.04 4.5 40.2 40 -7.8 17.9
13:50 1019 30.09 848 25.04 4.7 40.5 39 -8.2 17.2
13:55 1018 30.06 848 25.04 5.3 41.6 37 -8.3 17
14:00 1018 30.06 848 25.04 4.8 40.6 45 -6.2 20.8
14:05 1019 30.09 848 25.04 4 39.2 48 -6 21.2
14:10 1019 30.09 848 25.04 4.1 39.3 47 -6.1 21
14:15 1019 30.09 848 25.04 4.9 40.8 44 -6.2 20.8
14:20 1019 30.09 848 25.04 4.3 39.8 45 -6.6 20.1
14:25 1018 30.06 848 25.04 3.6 38.5 49 -6.2 20.8
14:30 1018 30.06 848 25.04 4.5 40 47 -6 21.2
14:35 1018 30.06 848 25.04 4.8 40.6 45 -6.1 21.1
14:40 1018 30.06 848 25.04 4.5 40 46 -6.3 20.7
14:45 1018 30.06 848 25.04 4.7 40.4 44 -6.5 20.3
14:50 1018 30.06 848 25.04 3.9 39 49 -6 21.2
14:55 1018 30.06 848 25.04 5 41 47 -5.5 22.2
15:00 1018 30.06 848 25.04 5.1 41.1 45 -6 21.1
15:05 1018 30.06 847 25.01 5.1 41.2 45 -5.9 21.3
15:10 1018 30.06 847 25.01 5.3 41.6 45 -5.8 21.6
15:15 1018 30.06 847 25.01 5.2 41.4 46 -5.6 22
15:20 1018 30.06 847 25.01 5.6 42.1 45 -5.4 22.2
15:25 1018 30.06 847 25.01 5.6 42.1 37 -8 17.7
15:30 1018 30.06 847 25.01 5 41.1 41 -7.2 19
15:35 1018 30.06 847 25.01 4.9 40.9 42 -6.9 19.6
15:40 1018 30.06 847 25.01 4.5 40 42 -7.3 18.8
15:45 1018 30.06 847 25.01 4.2 39.6 50 -5.2 22.6
15:50 1018 30.06 847 25.01 3.3 37.9 54 -5.1 22.8
15:55 1018 30.06 847 25.01 4.6 40.2 49 -5.1 22.8
16:00 1018 30.06 847 25.01 5.4 41.7 47 -5.1 22.8
16:05 1018 30.06 847 25.01 4.8 40.6 47 -5.6 21.8
16:10 1018 30.06 847 25.01 4.5 40.1 43 -7.1 19.3
16:15 1018 30.06 847 25.01 4.5 40.1 51 -4.9 23.2
16:20 1018 30.06 847 25.01 3.2 37.8 55 -4.9 23.1
16:25 1018 30.06 847 25.01 2.8 37 58 -4.8 23.4
16:30 1018 30.06 847 25.01 3 37.4 57 -4.8 23.4
16:35 1018 30.06 847 25.01 3 37.4 58 -4.4 24.1
16:40 1018 30.06 847 25.01 4.7 40.4 52 -4.4 24.1
16:45 1018 30.06 847 25.01 5.4 41.6 49 -4.6 23.8
16:50 1018 30.06 847 25.01 4.2 39.6 54 -4.2 24.4
16:55 1018 30.06 847 25.01 3.5 38.4 55 -4.6 23.8
17:00 1018 30.06 847 25.01 3.7 38.7 56 -4.3 24.2
17:05 1018 30.06 847 25.01 3.2 37.7 58 -4.3 24.3
17:10 1018 30.06 847 25.01 3.2 37.8 57 -4.5 23.8
17:15 1018 30.06 847 25.01 3.3 37.9 56 -4.7 23.5
17:20 1018 30.06 847 25.01 3.9 39 53 -4.9 23.2
17:25 1018 30.06 847 25.01 4.1 39.4 53 -4.6 23.7
17:30 1018 30.06 847 25.01 3.6 38.5 55 -4.6 23.7
17:35 1017 30.03 847 25.01 2.7 36.9 56 -5.1 22.8
17:40 1018 30.06 847 25.01 2.5 36.6 57 -5.2 22.7
17:45 1018 30.06 847 25.01 3.4 38.1 54 -5.1 22.8
17:50 1018 30.06 847 25.01 4.3 39.7 49 -5.5 22.1
17:55 1018 30.06 847 25.01 4 39.2 52 -5.1 22.9
18:00 1018 30.06 847 25.01 4 39.2 46 -6.5 20.3
18:05 1018 30.06 847 25.01 3.9 39 46 -6.7 20
18:10 1018 30.06 847 25.01 3.9 39.1 46 -6.7 20
18:15 1018 30.06 847 25.01 4 39.2 44 -7.1 19.2
18:20 1018 30.06 847 25.01 3.9 39 42 -7.9 17.9
18:25 1018 30.06 847 25.01 4 39.2 43 -7.5 18.4
18:30 1018 30.06 847 25.01 4.1 39.3 42 -7.6 18.3
18:35 1018 30.06 847 25.01 3.8 38.9 45 -7.1 19.2
18:40 1018 30.06 847 25.01 3.7 38.7 45 -7.2 19
18:45 1018 30.06 847 25.01 3.7 38.7 46 -6.8 19.8
18:50 1018 30.06 847 25.01 3.8 38.9 46 -6.8 19.7
18:55 1018 30.06 847 25.01 4 39.2 48 -6 21.3
19:00 1018 30.06 847 25.01 3.5 38.4 52 -5.4 22.2
19:05 1018 30.06 847 25.01 2.9 37.2 54 -5.5 22.1
19:10 1018 30.06 847 25.01 2.8 37.1 56 -5.2 22.7
19:15 1018 30.06 847 25.01 2.6 36.7 56 -5.3 22.5
19:20 1018 30.06 847 25.01 2.9 37.3 54 -5.4 22.3
19:25 1018 30.06 847 25.01 2.9 37.3 54 -5.4 22.2
19:30 1018 30.06 847 25.01 3.1 37.5 54 -5.4 22.2
19:35 1018 30.06 847 25.01 3.3 38 50 -6.1 21.1
19:40 1018 30.06 847 25.01 3.4 38.2 50 -5.9 21.3
19:45 1018 30.06 847 25.01 3.8 38.8 48 -6.1 21
19:50 1018 30.06 847 25.01 3.7 38.6 50 -5.7 21.7
19:55 1018 30.06 847 25.01 3.6 38.5 47 -6.6 20.2
20:00 1018 30.06 847 25.01 3.5 38.3 48 -6.4 20.5
20:05 1018 30.06 847 25.01 3.5 38.3 49 -6.2 20.8
20:10 1018 30.06 847 25.01 3.4 38.1 50 -6 21.2
20:15 1018 30.06 847 25.01 3.1 37.6 50 -6.4 20.5
20:20 1018 30.06 847 25.01 2.9 37.3 51 -6.1 21
20:25 1018 30.06 847 25.01 2.9 37.1 50 -6.5 20.2
20:30 1018 30.06 848 25.04 3.1 37.6 47 -7.1 19.2
20:35 1018 30.06 848 25.04 3.3 37.9 47 -6.9 19.5
20:40 1019 30.09 848 25.04 3.3 38 46 -7.1 19.2
20:45 1019 30.09 848 25.04 3.4 38.1 46 -7.3 18.9
20:50 1019 30.09 848 25.04 3.4 38.2 47 -6.9 19.6
20:55 1019 30.09 848 25.04 3.4 38.1 49 -6.2 20.8
21:00 1019 30.09 848 25.04 3.4 38.1 51 -5.8 21.5
21:05 1019 30.09 848 25.04 3.3 38 50 -6.3 20.7
21:10 1019 30.09 848 25.04 3.2 37.7 49 -6.5 20.3
21:15 1019 30.09 848 25.04 3.1 37.6 49 -6.7 20
21:20 1019 30.09 848 25.04 2.9 37.3 50 -6.5 20.2
21:25 1019 30.09 848 25.04 3 37.3 52 -6.1 21.1
21:30 1019 30.09 849 25.07 2.9 37.3 53 -5.7 21.7
21:35 1019 30.09 849 25.07 2.9 37.2 54 -5.5 22
21:40 1020 30.12 849 25.07 2.8 37.1 54 -5.6 21.9
21:45 1020 30.12 849 25.07 2.7 36.8 55 -5.6 22
21:50 1020 30.12 849 25.07 2.6 36.6 56 -5.4 22.2
21:55 1020 30.12 849 25.07 2.4 36.3 56 -5.5 22.1
22:00 1020 30.12 849 25.07 2.3 36.2 57 -5.4 22.2
22:05 1020 30.12 849 25.07 2.3 36.2 57 -5.4 22.3
22:10 1020 30.12 849 25.07 2.3 36.1 55 -5.8 21.6
22:15 1020 30.12 849 25.07 2.1 35.8 54 -6.2 20.9
22:20 1020 30.12 849 25.07 2 35.7 54 -6.3 20.7
22:25 1020 30.12 849 25.07 2 35.6 54 -6.4 20.4
22:30 1020 30.12 849 25.07 2 35.6 54 -6.4 20.5
22:35 1020 30.12 849 25.07 2 35.5 54 -6.4 20.5
22:40 1020 30.12 849 25.07 1.9 35.4 55 -6.2 20.8
22:45 1020 30.12 849 25.07 1.8 35.3 56 -6 21.1
22:50 1020 30.12 849 25.07 1.8 35.2 57 -5.8 21.5
22:55 1020 30.12 849 25.07 1.7 35.1 57 -5.9 21.4
23:00 1020 30.12 849 25.07 1.7 35 57 -5.9 21.3
23:05 1020 30.12 849 25.07 1.7 35 58 -5.8 21.5
23:10 1020 30.12 849 25.07 1.6 34.9 58 -5.8 21.6
23:15 1020 30.12 849 25.07 1.6 34.9 59 -5.6 21.9
23:20 1020 30.12 849 25.07 1.6 34.8 60 -5.4 22.2
23:25 1020 30.12 849 25.07 1.5 34.7 60 -5.4 22.3
23:30 1020 30.12 849 25.07 1.4 34.5 61 -5.4 22.3
23:35 1020 30.12 849 25.07 1.4 34.5 60 -5.6 21.9
23:40 1020 30.12 849 25.07 1.3 34.4 59 -5.8 21.5
23:45 1020 30.12 849 25.07 1.3 34.4 59 -5.8 21.6
23:50 1020 30.12 849 25.07 1.3 34.4 59 -5.8 21.5
23:55 1020 30.12 849 25.07 1.3 34.4 59 -5.9 21.4
24:00 1020 30.12 849 25.07 1.4 34.5 58 -5.9 21.3